createdAt,value
2023-04-29T00:02:16.383Z,7.05
2023-04-29T00:05:20.097Z,6.93
2023-04-29T00:08:23.853Z,7.10
2023-04-29T00:11:27.264Z,6.90
2023-04-29T00:14:30.649Z,8.15
2023-04-29T00:17:34.056Z,7.93
2023-04-29T00:20:38.964Z,8.95
2023-04-29T00:23:42.775Z,8.30
2023-04-29T00:26:46.685Z,7.07
2023-04-29T00:29:50.413Z,7.13
2023-04-29T00:32:53.966Z,9.23
2023-04-29T00:35:57.359Z,9.57
2023-04-29T00:39:01.743Z,8.37
2023-04-29T00:42:05.303Z,7.97
2023-04-29T00:45:11.569Z,8.23
2023-04-29T00:48:15.990Z,8.68
2023-04-29T00:51:19.676Z,8.30
2023-04-29T00:54:23.290Z,8.33
2023-04-29T00:57:30.294Z,8.87
2023-04-29T01:00:34.068Z,8.32
2023-04-29T01:03:38.508Z,9.10
2023-04-29T01:06:57.483Z,8.75
2023-04-29T01:10:22.722Z,8.67
2023-04-29T01:13:52.374Z,8.77
2023-04-29T01:17:02.766Z,8.52
2023-04-29T01:20:06.972Z,9.10
2023-04-29T01:23:11.071Z,9.02
2023-04-29T01:26:15.848Z,9.10
2023-04-29T01:29:46.024Z,9.57
2023-04-29T01:33:00.989Z,8.82
2023-04-29T01:36:27.887Z,8.98
2023-04-29T01:40:05.541Z,8.98
2023-04-29T01:43:14.660Z,8.50
2023-04-29T01:46:21.876Z,8.83
2023-04-29T01:49:27.840Z,8.98
2023-04-29T01:52:31.995Z,10.23
2023-04-29T01:55:35.636Z,9.05
2023-04-29T01:58:51.259Z,9.27
2023-04-29T02:02:21.408Z,9.00
2023-04-29T02:05:34.394Z,9.90
2023-04-29T02:08:38.626Z,9.23
2023-04-29T02:11:42.996Z,9.38
2023-04-29T02:14:48.011Z,8.97
2023-04-29T02:17:51.449Z,10.97
2023-04-29T02:21:02.189Z,9.32
2023-04-29T02:24:06.348Z,9.38
2023-04-29T02:27:10.162Z,9.70
2023-04-29T02:30:13.655Z,9.90
2023-04-29T02:33:18.552Z,9.23
2023-04-29T02:36:21.948Z,10.02
2023-04-29T02:39:27.810Z,10.13
2023-04-29T02:42:32.343Z,10.38
2023-04-29T02:45:39.044Z,11.23
2023-04-29T02:48:42.787Z,10.20
2023-04-29T02:51:46.246Z,11.45
2023-04-29T02:54:49.568Z,10.85
2023-04-29T02:57:53.195Z,10.93
2023-04-29T03:00:56.787Z,10.40
2023-04-29T03:04:00.874Z,11.57
2023-04-29T03:07:04.986Z,10.95
2023-04-29T03:10:09.223Z,10.98
2023-04-29T03:13:14.170Z,11.07
2023-04-29T03:16:17.911Z,10.70
2023-04-29T03:19:21.343Z,10.60
2023-04-29T03:22:26.967Z,11.45
2023-04-29T03:25:30.598Z,11.18
2023-04-29T03:28:34.284Z,11.18
2023-04-29T03:31:37.566Z,11.30
2023-04-29T03:34:41.474Z,10.73
2023-04-29T03:38:11.594Z,10.80
2023-04-29T03:41:15.692Z,11.60
2023-04-29T03:44:19.091Z,10.80
2023-04-29T03:47:22.519Z,10.70
2023-04-29T03:50:26.228Z,11.20
2023-04-29T03:53:30.630Z,12.23
2023-04-29T03:56:34.012Z,11.73
2023-04-29T03:59:37.827Z,12.60
2023-04-29T04:02:41.936Z,12.07
2023-04-29T04:05:46.814Z,13.50
2023-04-29T04:08:52.153Z,12.55
2023-04-29T04:12:01.095Z,11.43
2023-04-29T04:15:05.280Z,11.10
2023-04-29T04:18:09.071Z,11.47
2023-04-29T04:21:19.033Z,10.50
2023-04-29T04:24:29.873Z,11.40
2023-04-29T04:27:33.351Z,10.40
2023-04-29T04:30:40.229Z,9.73
2023-04-29T04:33:43.642Z,10.37
2023-04-29T04:36:47.183Z,10.53
2023-04-29T04:39:50.839Z,9.88
2023-04-29T04:42:55.316Z,10.00
2023-04-29T04:45:59.595Z,9.38
2023-04-29T04:49:03.356Z,9.23
2023-04-29T04:52:09.509Z,9.57
2023-04-29T04:55:15.018Z,9.38
2023-04-29T04:58:21.319Z,9.02
2023-04-29T05:01:25.073Z,8.55
2023-04-29T05:04:28.920Z,8.23
2023-04-29T05:07:33.284Z,8.37
2023-04-29T05:10:40.366Z,8.13
2023-04-29T05:13:44.952Z,8.88
2023-04-29T05:16:48.576Z,8.23
2023-04-29T05:19:52.036Z,8.70
2023-04-29T05:22:55.696Z,8.27
2023-04-29T05:26:00.363Z,8.55
2023-04-29T05:29:03.900Z,9.32
2023-04-29T05:32:14.392Z,8.68
2023-04-29T05:35:18.006Z,8.37
2023-04-29T05:38:21.864Z,8.90
2023-04-29T05:41:34.147Z,9.27
2023-04-29T05:44:43.238Z,8.93
2023-04-29T05:47:46.790Z,9.05
2023-04-29T05:50:50.529Z,8.77
2023-04-29T05:53:54.929Z,8.03
2023-04-29T05:56:58.361Z,8.05
2023-04-29T06:00:04.272Z,8.48
2023-04-29T06:03:17.382Z,7.90
2023-04-29T06:06:21.353Z,7.67
2023-04-29T06:09:44.170Z,7.67
2023-04-29T06:12:50.965Z,8.48
2023-04-29T06:15:54.654Z,8.43
2023-04-29T06:18:58.545Z,7.70
2023-04-29T06:22:01.989Z,7.67
2023-04-29T06:25:08.395Z,7.70
2023-04-29T06:28:23.546Z,7.85
2023-04-29T06:31:27.946Z,6.90
2023-04-29T06:34:36.331Z,7.35
2023-04-29T06:38:11.987Z,6.97
2023-04-29T06:41:51.718Z,7.00
2023-04-29T06:45:33.766Z,7.50
2023-04-29T06:48:46.403Z,7.50
2023-04-29T06:51:50.036Z,7.35
2023-04-29T06:54:53.624Z,7.20
2023-04-29T06:57:57.742Z,7.40
2023-04-29T07:01:19.235Z,6.30
2023-04-29T07:04:23.138Z,6.20
2023-04-29T07:07:27.822Z,6.55
2023-04-29T07:10:31.303Z,6.20
2023-04-29T07:13:34.801Z,6.60
2023-04-29T07:16:38.283Z,6.80
2023-04-29T07:19:46.648Z,6.95
2023-04-29T07:22:50.092Z,6.90
2023-04-29T07:25:53.765Z,6.80
2023-04-29T07:28:58.000Z,6.63
2023-04-29T07:32:01.621Z,7.00
2023-04-29T07:35:05.339Z,7.03
2023-04-29T07:38:08.757Z,7.13
2023-04-29T07:41:12.192Z,8.13
2023-04-29T07:44:15.814Z,7.13
2023-04-29T07:47:19.943Z,6.93
2023-04-29T07:50:23.464Z,6.45
2023-04-29T07:53:26.857Z,6.32
2023-04-29T07:56:31.192Z,6.27
2023-04-29T07:59:34.634Z,7.40
2023-04-29T08:02:39.580Z,6.18
2023-04-29T08:05:43.618Z,6.25
2023-04-29T08:08:51.321Z,6.05
2023-04-29T08:11:55.575Z,6.80
2023-04-29T08:14:59.068Z,6.70
2023-04-29T08:18:02.501Z,6.43
2023-04-29T08:21:06.164Z,6.25
2023-04-29T08:24:09.535Z,6.95
2023-04-29T08:27:12.936Z,7.83
2023-04-29T08:30:16.467Z,7.03
2023-04-29T08:33:19.986Z,6.43
2023-04-29T08:36:23.491Z,6.15
2023-04-29T08:39:28.450Z,6.28
2023-04-29T08:42:36.949Z,6.40
2023-04-29T08:45:42.099Z,6.10
2023-04-29T08:48:46.010Z,6.10
2023-04-29T08:51:52.798Z,6.22
2023-04-29T08:54:57.040Z,6.03
2023-04-29T08:58:02.223Z,6.40
2023-04-29T09:01:09.831Z,6.07
2023-04-29T09:04:26.768Z,5.95
2023-04-29T09:07:32.056Z,6.57
2023-04-29T09:10:38.031Z,6.72
2023-04-29T09:13:41.516Z,6.93
2023-04-29T09:16:47.903Z,6.03
2023-04-29T09:19:51.448Z,6.32
2023-04-29T09:23:04.175Z,6.10
2023-04-29T09:26:08.042Z,5.95
2023-04-29T09:29:18.478Z,6.90
2023-04-29T09:32:22.181Z,6.27
2023-04-29T09:35:28.054Z,6.20
2023-04-29T09:38:31.473Z,6.78
2023-04-29T09:41:35.743Z,6.15
2023-04-29T09:44:42.836Z,6.13
2023-04-29T09:47:46.960Z,5.97
2023-04-29T09:51:04.727Z,6.47
2023-04-29T09:54:25.145Z,5.65
2023-04-29T09:57:44.858Z,5.65
2023-04-29T10:00:48.749Z,5.37
2023-04-29T10:03:54.603Z,5.90
2023-04-29T10:06:58.244Z,5.00
2023-04-29T10:10:03.010Z,5.28
2023-04-29T10:13:06.517Z,4.97
2023-04-29T10:16:33.256Z,4.87
2023-04-29T10:20:10.432Z,4.90
2023-04-29T10:23:15.507Z,4.43
2023-04-29T10:26:19.895Z,5.22
2023-04-29T10:29:25.600Z,4.53
2023-04-29T10:32:37.020Z,4.77
2023-04-29T10:35:49.499Z,5.00
2023-04-29T10:38:56.164Z,8.48
2023-04-29T10:41:59.922Z,8.98
2023-04-29T10:45:34.951Z,4.47
2023-04-29T10:48:38.430Z,4.47
2023-04-29T10:51:43.996Z,4.03
2023-04-29T10:55:03.927Z,4.65
2023-04-29T10:58:36.953Z,4.63
2023-04-29T11:01:53.625Z,3.38
2023-04-29T11:05:10.966Z,3.10
2023-04-29T11:08:26.592Z,10.27
2023-04-29T11:11:42.303Z,3.90
2023-04-29T11:14:51.525Z,5.32
2023-04-29T11:18:00.457Z,3.72
2023-04-29T11:21:06.804Z,3.37
2023-04-29T11:24:12.858Z,3.80
2023-04-29T11:27:17.991Z,3.38
2023-04-29T11:30:22.287Z,3.63
2023-04-29T11:33:30.240Z,6.07
2023-04-29T11:36:36.144Z,3.90
2023-04-29T11:39:39.712Z,3.60
2023-04-29T11:42:48.078Z,3.97
2023-04-29T11:45:52.686Z,3.88
2023-04-29T11:48:59.985Z,3.78
2023-04-29T11:52:03.786Z,3.80
2023-04-29T11:55:09.578Z,4.03
2023-04-29T11:58:14.540Z,3.90
2023-04-29T12:01:19.955Z,3.67
2023-04-29T12:04:23.780Z,3.50
2023-04-29T12:07:27.818Z,4.20
2023-04-29T12:10:33.004Z,3.60
2023-04-29T12:13:36.754Z,3.90
2023-04-29T12:16:40.546Z,3.88
2023-04-29T12:19:44.306Z,4.10
2023-04-29T12:22:47.962Z,5.30
2023-04-29T12:25:53.258Z,7.07
2023-04-29T12:28:59.347Z,16.13
2023-04-29T12:32:03.296Z,3.88
2023-04-29T12:35:15.653Z,3.67
2023-04-29T12:38:23.245Z,3.73
2023-04-29T12:41:40.525Z,3.97
2023-04-29T12:44:47.769Z,3.88
2023-04-29T12:47:52.151Z,4.00
2023-04-29T12:50:58.522Z,3.92
2023-04-29T12:54:07.476Z,3.40
2023-04-29T12:57:12.156Z,4.20
2023-04-29T13:00:16.839Z,4.00
2023-04-29T13:03:22.164Z,4.80
2023-04-29T13:06:25.952Z,3.90
2023-04-29T13:09:30.613Z,3.70
2023-04-29T13:12:34.386Z,3.80
2023-04-29T13:15:41.444Z,3.75
2023-04-29T13:18:53.697Z,3.80
2023-04-29T13:22:08.192Z,3.95
2023-04-29T13:25:12.441Z,4.00
2023-04-29T13:28:16.550Z,3.80
2023-04-29T13:31:19.984Z,3.92
2023-04-29T13:34:23.707Z,3.95
2023-04-29T13:37:27.110Z,3.65
2023-04-29T13:40:31.216Z,4.20
2023-04-29T13:43:38.395Z,3.70
2023-04-29T13:46:44.539Z,4.10
2023-04-29T13:53:24.729Z,3.45
2023-04-29T14:02:32.360Z,3.45
2023-04-29T14:05:37.654Z,3.70
2023-04-29T14:08:41.488Z,3.20
2023-04-29T14:11:45.060Z,3.10
2023-04-29T14:14:48.550Z,2.97
2023-04-29T14:17:52.425Z,3.08
2023-04-29T14:20:56.393Z,3.40
2023-04-29T14:24:03.796Z,3.50
2023-04-29T14:27:07.407Z,3.53
2023-04-29T14:30:11.718Z,3.60
2023-04-29T14:33:15.259Z,3.30
2023-04-29T14:36:18.623Z,3.58
2023-04-29T14:39:21.928Z,3.30
2023-04-29T14:42:25.497Z,4.17
2023-04-29T14:45:29.042Z,3.40
2023-04-29T14:48:33.310Z,3.60
2023-04-29T14:51:36.826Z,4.10
2023-04-29T14:54:40.237Z,3.47
2023-04-29T14:57:43.837Z,4.03
2023-04-29T15:00:47.602Z,3.50
2023-04-29T15:03:51.558Z,3.42
2023-04-29T15:06:55.248Z,3.90
2023-04-29T15:09:58.768Z,4.00
2023-04-29T15:13:02.466Z,4.00
2023-04-29T15:16:07.567Z,3.57
2023-04-29T15:19:11.358Z,4.18
2023-04-29T15:22:15.273Z,4.15
2023-04-29T15:25:18.842Z,3.72
2023-04-29T15:28:24.630Z,3.40
2023-04-29T15:31:29.329Z,4.80
2023-04-29T15:34:34.846Z,4.18
2023-04-29T15:37:38.462Z,3.70
2023-04-29T15:40:42.061Z,4.18
2023-04-29T15:43:45.703Z,6.33
2023-04-29T15:46:49.144Z,4.13
2023-04-29T15:49:52.920Z,3.50
2023-04-29T15:52:58.948Z,3.67
2023-04-29T15:56:02.566Z,4.00
2023-04-29T15:59:06.572Z,3.60
2023-04-29T16:02:11.780Z,3.70
2023-04-29T16:05:15.351Z,3.28
2023-04-29T16:08:18.866Z,3.50
2023-04-29T16:11:22.700Z,4.00
2023-04-29T16:14:26.594Z,5.23
2023-04-29T16:17:31.668Z,3.97
2023-04-29T16:20:36.454Z,3.50
2023-04-29T16:23:40.372Z,4.07
2023-04-29T16:26:46.018Z,5.75
2023-04-29T16:29:49.962Z,4.80
2023-04-29T16:32:53.813Z,3.63
2023-04-29T16:36:00.482Z,4.43
2023-04-29T16:39:04.854Z,4.30
2023-04-29T16:42:08.519Z,9.65
2023-04-29T16:45:13.398Z,7.00
2023-04-29T16:48:16.841Z,10.97
2023-04-29T16:51:23.249Z,10.93
2023-04-29T16:54:27.953Z,7.43
2023-04-29T16:57:32.093Z,4.60
2023-04-29T17:00:35.626Z,4.47
2023-04-29T17:03:39.440Z,5.10
2023-04-29T17:06:43.117Z,7.63
2023-04-29T17:09:49.721Z,12.45
2023-04-29T17:12:53.369Z,9.32
2023-04-29T17:15:57.039Z,9.77
2023-04-29T17:19:00.476Z,12.50
2023-04-29T17:22:04.021Z,14.93
2023-04-29T17:25:09.202Z,11.55
2023-04-29T17:28:12.775Z,8.57
2023-04-29T17:31:16.850Z,8.60
2023-04-29T17:34:24.011Z,14.10
2023-04-29T17:37:27.585Z,13.85
2023-04-29T17:40:31.552Z,10.57
2023-04-29T17:43:35.714Z,14.18
2023-04-29T17:46:40.221Z,14.40
2023-04-29T17:49:44.217Z,9.60
2023-04-29T17:52:47.851Z,14.93
2023-04-29T17:55:51.644Z,28.50
2023-04-29T17:58:55.222Z,13.57
2023-04-29T18:01:59.093Z,11.77
2023-04-29T18:05:03.804Z,10.13
2023-04-29T18:08:07.274Z,8.88
2023-04-29T18:11:12.716Z,19.95
2023-04-29T18:14:16.610Z,10.98
2023-04-29T18:17:20.611Z,17.60
2023-04-29T18:20:24.284Z,18.87
2023-04-29T18:23:28.033Z,11.75
2023-04-29T18:26:31.553Z,10.05
2023-04-29T18:29:35.523Z,9.65
2023-04-29T18:32:39.296Z,11.37
2023-04-29T18:35:43.375Z,10.87
2023-04-29T18:38:47.027Z,19.42
2023-04-29T18:41:50.573Z,12.90
2023-04-29T18:44:54.226Z,10.77
2023-04-29T18:47:57.849Z,14.03
2023-04-29T18:51:04.186Z,14.93
2023-04-29T18:54:08.015Z,15.52
2023-04-29T18:57:11.745Z,15.38
2023-04-29T19:00:16.339Z,14.98
2023-04-29T19:03:19.974Z,23.90
2023-04-29T19:06:23.927Z,21.50
2023-04-29T19:09:31.546Z,18.30
2023-04-29T19:12:35.530Z,14.43
2023-04-29T19:15:39.114Z,15.13
2023-04-29T19:18:42.472Z,14.47
2023-04-29T19:21:46.294Z,15.97
2023-04-29T19:24:49.683Z,19.38
2023-04-29T19:27:53.529Z,22.45
2023-04-29T19:30:57.349Z,20.73
2023-04-29T19:34:01.171Z,18.57
2023-04-29T19:37:04.935Z,14.60
2023-04-29T19:40:10.942Z,32.22
2023-04-29T19:43:14.645Z,34.15
2023-04-29T19:46:18.754Z,23.95
2023-04-29T19:49:22.499Z,23.23
2023-04-29T19:52:26.860Z,22.17
2023-04-29T19:55:31.069Z,22.83
2023-04-29T19:58:34.463Z,17.95
2023-04-29T20:01:38.301Z,19.83
2023-04-29T20:04:41.837Z,17.67
2023-04-29T20:07:45.488Z,18.37
2023-04-29T20:10:49.195Z,15.30
2023-04-29T20:13:53.154Z,16.63
2023-04-29T20:16:58.266Z,20.85
2023-04-29T20:20:03.763Z,15.50
2023-04-29T20:23:07.311Z,17.90
2023-04-29T20:26:11.077Z,13.80
2023-04-29T20:29:14.733Z,10.60
2023-04-29T20:32:18.220Z,12.23
2023-04-29T20:35:22.456Z,11.90
2023-04-29T20:38:26.922Z,10.60
2023-04-29T20:41:30.444Z,12.50
2023-04-29T20:44:34.140Z,14.35
2023-04-29T20:47:37.880Z,12.60
2023-04-29T20:50:41.860Z,13.03
2023-04-29T20:53:45.285Z,13.30
2023-04-29T20:56:48.680Z,10.00
2023-04-29T20:59:53.179Z,10.70
2023-04-29T21:02:56.758Z,11.40
2023-04-29T21:06:00.566Z,11.20
2023-04-29T21:09:04.202Z,11.20
2023-04-29T21:12:08.374Z,11.25
2023-04-29T21:15:12.132Z,13.85
2023-04-29T21:18:15.758Z,12.95
2023-04-29T21:21:19.138Z,13.20
2023-04-29T21:24:22.705Z,12.90
2023-04-29T21:27:26.413Z,11.82
2023-04-29T21:30:29.828Z,10.38
2023-04-29T21:33:33.297Z,10.90
2023-04-29T21:36:36.739Z,10.63
2023-04-29T21:39:40.403Z,11.53
2023-04-29T21:42:44.854Z,11.38
2023-04-29T21:45:48.249Z,11.13
2023-04-29T21:48:51.761Z,10.88
2023-04-29T21:51:56.111Z,10.00
2023-04-29T21:54:59.688Z,10.60
2023-04-29T21:58:03.356Z,11.80
2023-04-29T22:01:26.244Z,12.40
2023-04-29T22:04:29.878Z,13.10
2023-04-29T22:07:33.283Z,12.53
2023-04-29T22:10:40.164Z,12.27
2023-04-29T22:13:45.299Z,12.98
2023-04-29T22:16:48.771Z,10.95
2023-04-29T22:19:52.328Z,11.27
2023-04-29T22:22:56.339Z,10.87
2023-04-29T22:25:59.746Z,13.37
2023-04-29T22:29:03.241Z,13.35
2023-04-29T22:32:06.662Z,13.02
2023-04-29T22:35:10.352Z,10.90
2023-04-29T22:38:13.729Z,12.23
2023-04-29T22:41:17.115Z,11.43
2023-04-29T22:44:20.843Z,11.85
2023-04-29T22:47:24.192Z,11.45
2023-04-29T22:50:27.617Z,11.57
2023-04-29T22:53:31.142Z,10.93
2023-04-29T22:56:34.494Z,11.80
2023-04-29T22:59:37.844Z,12.30
2023-04-29T23:02:41.371Z,11.82
2023-04-29T23:05:44.711Z,11.88
2023-04-29T23:08:48.327Z,13.07
2023-04-29T23:11:51.607Z,12.30
2023-04-29T23:14:55.320Z,13.07
2023-04-29T23:17:59.077Z,13.48
2023-04-29T23:21:02.504Z,12.55
2023-04-29T23:24:06.267Z,13.23
2023-04-29T23:27:09.854Z,13.80
2023-04-29T23:30:13.395Z,13.50
2023-04-29T23:33:16.858Z,14.07
2023-04-29T23:36:20.256Z,12.75
2023-04-29T23:39:23.658Z,12.70
2023-04-29T23:42:27.831Z,12.00
2023-04-29T23:45:31.286Z,12.60
2023-04-29T23:48:34.628Z,12.50
2023-04-29T23:51:38.028Z,12.48
2023-04-29T23:54:41.488Z,12.87
2023-04-29T23:57:44.941Z,12.20
